Time;durP1;ratioP1;P1;durP2;ratioP2;P2;SDS_P1;SDS_P2;PMS_P1;PMS_P2;Temp;Humidity;BMP_temperature;BMP_pressure;BME280_temperature;BME280_humidity;BME280_pressure;Samples;Min_cycle;Max_cycle;Signal;HPM_P1;HPM_P2
2023/02/18 00:03:27;;;;;;;1.67;1.57;;;13.30;99.90;;;;;;10503776;28;20275;-81
2023/02/18 00:08:30;;;;;;;1.60;1.50;;;13.30;99.90;;;;;;10503272;28;20740;-81
2023/02/18 00:13:32;;;;;;;2.10;2.00;;;13.30;99.90;;;;;;10471513;28;20201;-81
2023/02/18 00:18:34;;;;;;;1.60;1.50;;;13.30;99.90;;;;;;10485604;28;20689;-81
2023/02/18 00:23:38;;;;;;;1.60;1.60;;;13.30;99.90;;;;;;10491742;28;20207;-81
2023/02/18 00:28:40;;;;;;;1.67;1.60;;;13.30;99.90;;;;;;10504584;28;20223;-80
2023/02/18 00:33:42;;;;;;;1.80;1.70;;;13.20;99.90;;;;;;10468546;28;20553;-81
2023/02/18 00:38:47;;;;;;;2.20;2.10;;;13.20;99.90;;;;;;10404034;28;20252;-80
2023/02/18 00:43:49;;;;;;;1.93;1.83;;;13.20;99.90;;;;;;10473444;28;20280;-80
2023/02/18 00:48:51;;;;;;;2.10;2.00;;;13.20;99.90;;;;;;10454652;28;20586;-80
2023/02/18 00:53:57;;;;;;;2.17;2.07;;;13.20;99.90;;;;;;10444485;28;20186;-80
2023/02/18 00:58:59;;;;;;;2.30;2.10;;;13.20;99.90;;;;;;10440137;28;20311;-80
2023/02/18 01:04:01;;;;;;;2.40;2.20;;;13.20;99.90;;;;;;10429777;28;20217;-80
2023/02/18 01:09:06;;;;;;;6.43;2.00;;;13.20;99.90;;;;;;10446873;28;20213;-80
2023/02/18 01:14:08;;;;;;;2.47;2.37;;;13.20;99.90;;;;;;10447911;28;20186;-80
2023/02/18 01:19:10;;;;;;;2.43;2.30;;;13.20;99.90;;;;;;10428752;28;20218;-80
2023/02/18 01:24:15;;;;;;;2.20;2.10;;;13.20;99.90;;;;;;10473717;28;20704;-80
2023/02/18 01:29:17;;;;;;;2.20;2.10;;;13.20;99.90;;;;;;10481418;28;20852;-80
2023/02/18 01:34:19;;;;;;;2.13;2.00;;;13.20;99.90;;;;;;10448075;28;20190;-80
2023/02/18 01:39:23;;;;;;;2.20;2.10;;;13.20;99.90;;;;;;10493185;28;20213;-80
2023/02/18 01:44:28;;;;;;;2.20;2.10;;;13.20;99.90;;;;;;10446233;28;20241;-80
2023/02/18 01:49:35;;;;;;;2.30;2.20;;;13.20;99.90;;;;;;10462887;28;20223;-80
2023/02/18 01:54:41;;;;;;;2.50;2.40;;;13.10;99.90;;;;;;10466556;28;20214;-80
2023/02/18 01:59:48;;;;;;;2.43;2.33;;;13.10;99.90;;;;;;10459928;28;20724;-80
2023/02/18 02:04:50;;;;;;;2.50;2.40;;;13.00;99.90;;;;;;10430809;28;20218;-80
2023/02/18 02:09:57;;;;;;;2.50;2.40;;;12.90;99.90;;;;;;10482503;28;20235;-80
2023/02/18 02:15:22;;;;;;;3.20;3.00;;;13.00;99.90;;;;;;10486869;28;20243;-80
2023/02/18 02:21:02;;;;;;;2.47;2.33;;;13.00;99.90;;;;;;10417201;28;20282;-79
2023/02/18 02:26:30;;;;;;;2.90;2.70;;;12.90;99.90;;;;;;10418134;28;20213;-80
2023/02/18 02:32:05;;;;;;;2.70;2.60;;;13.00;99.90;;;;;;10445528;28;20196;-80
2023/02/18 02:37:15;;;;;;;2.60;2.50;;;13.00;99.90;;;;;;10454511;28;20221;-80
2023/02/18 02:42:23;;;;;;;2.60;2.40;;;13.00;99.90;;;;;;10441641;28;20219;-79
2023/02/18 02:47:30;;;;;;;3.60;3.30;;;13.00;99.90;;;;;;10457640;28;20237;-80
2023/02/18 02:52:37;;;;;;;2.97;2.77;;;13.00;99.90;;;;;;10474665;28;20600;-80
2023/02/18 02:57:50;;;;;;;2.70;2.50;;;13.00;99.90;;;;;;10475297;28;20201;-80
2023/02/18 03:03:16;;;;;;;2.93;2.83;;;13.10;99.90;;;;;;10485836;28;20197;-80
2023/02/18 03:08:33;;;;;;;2.73;2.60;;;13.00;99.90;;;;;;10451387;28;20229;-80
2023/02/18 03:13:51;;;;;;;2.93;2.83;;;13.00;99.90;;;;;;10457942;28;20719;-80
2023/02/18 03:19:04;;;;;;;2.17;2.07;;;13.00;99.90;;;;;;10428329;28;20561;-80
2023/02/18 03:24:14;;;;;;;2.40;2.30;;;13.00;99.90;;;;;;10461499;28;20194;-80
2023/02/18 03:29:19;;;;;;;2.23;2.13;;;12.90;99.90;;;;;;10461110;28;20218;-80
2023/02/18 03:34:29;;;;;;;2.70;2.60;;;12.90;99.90;;;;;;10478343;28;20190;-81
2023/02/18 03:39:35;;;;;;;2.60;2.50;;;12.90;99.90;;;;;;10441395;28;20222;-81
2023/02/18 03:44:39;;;;;;;2.40;2.30;;;12.90;99.90;;;;;;10459741;28;20494;-80
2023/02/18 03:49:41;;;;;;;2.73;2.57;;;12.80;99.90;;;;;;10475089;28;20214;-80
2023/02/18 03:54:44;;;;;;;2.30;2.20;;;12.70;99.90;;;;;;10457353;28;20231;-80
2023/02/18 03:59:46;;;;;;;2.63;2.53;;;12.60;99.90;;;;;;10441970;28;20217;-80
2023/02/18 04:04:48;;;;;;;2.93;2.83;;;12.50;99.90;;;;;;10452084;28;20214;-80
2023/02/18 04:09:52;;;;;;;2.63;2.53;;;12.50;99.90;;;;;;10476087;28;20214;-80
2023/02/18 04:14:54;;;;;;;2.60;2.50;;;12.50;99.90;;;;;;10460207;28;20193;-81
2023/02/18 04:19:56;;;;;;;2.20;2.10;;;12.50;99.90;;;;;;10497586;28;20240;-81
2023/02/18 04:24:59;;;;;;;3.10;3.00;;;12.60;99.90;;;;;;10453524;28;20211;-80
2023/02/18 04:30:01;;;;;;;3.00;2.90;;;12.60;99.90;;;;;;10495826;28;20229;-81
2023/02/18 04:35:03;;;;;;;3.07;2.97;;;12.60;99.90;;;;;;10475303;28;20202;-80
2023/02/18 04:40:08;;;;;;;2.80;2.70;;;12.60;99.90;;;;;;10453428;28;20222;-80
2023/02/18 04:45:10;;;;;;;2.93;2.83;;;12.50;99.90;;;;;;10478202;28;20209;-80
2023/02/18 04:50:12;;;;;;;2.40;2.30;;;12.50;99.90;;;;;;10446522;28;20244;-80
2023/02/18 04:55:15;;;;;;;2.80;2.70;;;12.40;99.90;;;;;;10458876;28;20274;-79
2023/02/18 05:00:20;;;;;;;2.73;2.63;;;12.40;99.90;;;;;;10463809;28;20681;-80
2023/02/18 05:05:22;;;;;;;2.97;2.87;;;12.40;99.90;;;;;;10469783;28;20213;-79
2023/02/18 05:10:25;;;;;;;3.60;3.30;;;12.40;99.90;;;;;;10462865;28;20224;-80
2023/02/18 05:15:28;;;;;;;3.07;2.87;;;12.40;99.90;;;;;;10454952;28;20247;-80
2023/02/18 05:20:30;;;;;;;2.70;2.60;;;12.40;99.90;;;;;;10475847;28;20222;-80
2023/02/18 05:25:33;;;;;;;3.60;2.47;;;12.40;99.90;;;;;;10474564;28;20205;-81
2023/02/18 05:30:35;;;;;;;2.80;2.70;;;12.40;99.90;;;;;;10462623;28;20224;-81
2023/02/18 05:35:37;;;;;;;2.93;2.83;;;12.30;99.90;;;;;;10463842;28;20193;-81
2023/02/18 05:40:41;;;;;;;2.93;2.70;;;12.20;99.90;;;;;;10501138;28;20225;-81
2023/02/18 05:45:43;;;;;;;2.70;2.60;;;12.30;99.90;;;;;;10479868;28;20205;-80
2023/02/18 05:50:45;;;;;;;2.30;2.20;;;12.30;99.90;;;;;;10489334;28;20308;-80
2023/02/18 05:55:48;;;;;;;3.40;3.20;;;12.20;99.90;;;;;;10501874;28;20220;-81
2023/02/18 06:00:50;;;;;;;2.70;2.50;;;12.30;99.90;;;;;;10490080;28;20225;-81
2023/02/18 06:05:53;;;;;;;2.37;2.27;;;12.30;99.90;;;;;;10478613;28;20218;-80
2023/02/18 06:10:56;;;;;;;2.90;2.70;;;12.30;99.90;;;;;;10481968;28;20692;-81
2023/02/18 06:15:58;;;;;;;2.47;2.37;;;12.30;99.90;;;;;;10495040;28;20185;-80
2023/02/18 06:21:00;;;;;;;2.40;2.30;;;12.30;99.90;;;;;;10474587;28;20268;-80
2023/02/18 06:26:04;;;;;;;2.53;2.43;;;12.30;99.90;;;;;;10463793;28;20241;-80
2023/02/18 06:31:07;;;;;;;2.67;2.57;;;12.30;99.90;;;;;;10471684;28;20189;-80
2023/02/18 06:36:15;;;;;;;3.00;2.80;;;12.30;99.90;;;;;;10456326;28;20225;-80
2023/02/18 06:41:18;;;;;;;2.50;2.30;;;12.30;99.90;;;;;;10492002;28;20611;-81
2023/02/18 06:46:20;;;;;;;2.80;2.63;;;12.30;99.90;;;;;;10472078;28;20248;-83
2023/02/18 06:51:22;;;;;;;2.80;2.70;;;12.40;99.90;;;;;;10469870;28;20220;-83
2023/02/18 06:56:26;;;;;;;2.73;2.63;;;12.40;99.90;;;;;;10445043;28;20230;-83
2023/02/18 07:01:28;;;;;;;2.80;2.60;;;12.50;99.90;;;;;;10484490;28;20202;-83
2023/02/18 07:06:30;;;;;;;2.77;2.67;;;12.50;99.90;;;;;;10453421;28;20247;-83
2023/02/18 07:11:33;;;;;;;4.30;2.47;;;12.60;99.90;;;;;;10506187;28;20198;-83
2023/02/18 07:16:35;;;;;;;3.07;2.97;;;12.60;99.90;;;;;;10483757;28;20225;-83
2023/02/18 07:21:37;;;;;;;2.60;2.50;;;12.70;99.90;;;;;;10488184;28;20200;-83
2023/02/18 07:26:41;;;;;;;3.97;3.57;;;12.70;99.90;;;;;;10490585;28;20241;-83
2023/02/18 07:31:43;;;;;;;4.03;3.73;;;12.70;99.90;;;;;;10465815;28;20189;-83
2023/02/18 07:36:45;;;;;;;2.70;2.60;;;12.80;99.90;;;;;;10473256;28;20704;-84
2023/02/18 07:41:48;;;;;;;4.10;3.80;;;12.80;99.90;;;;;;10474840;28;20203;-83
2023/02/18 07:46:52;;;;;;;3.10;2.93;;;12.90;99.90;;;;;;10446223;28;20217;-83
2023/02/18 07:51:54;;;;;;;2.57;2.47;;;13.00;99.90;;;;;;10497852;28;20204;-83
2023/02/18 07:56:57;;;;;;;3.53;3.20;;;13.10;99.90;;;;;;10464300;28;20279;-83
2023/02/18 08:01:59;;;;;;;3.30;3.10;;;13.20;99.90;;;;;;10454311;28;20206;-83
2023/02/18 08:07:01;;;;;;;3.60;3.30;;;13.30;99.90;;;;;;10428238;28;20222;-83
2023/02/18 08:12:05;;;;;;;2.93;2.73;;;13.40;99.90;;;;;;10441415;28;20225;-83
2023/02/18 08:17:08;;;;;;;2.70;2.60;;;13.40;99.90;;;;;;10461980;22;20499;-80
2023/02/18 08:22:11;;;;;;;3.87;3.67;;;13.50;99.90;;;;;;10556979;28;20202;-79
2023/02/18 08:27:14;;;;;;;3.90;3.60;;;13.50;99.90;;;;;;10507242;28;20216;-80
2023/02/18 08:32:16;;;;;;;3.40;3.13;;;13.50;99.90;;;;;;10512426;28;20197;-79
2023/02/18 08:37:18;;;;;;;2.60;2.50;;;13.70;99.90;;;;;;10496178;28;20571;-80
2023/02/18 08:42:22;;;;;;;3.10;2.90;;;13.70;99.90;;;;;;10558487;28;20195;-80
2023/02/18 08:47:45;;;;;;;2.60;2.37;;;13.80;99.90;;;;;;10594343;28;20260;-79
2023/02/18 08:52:49;;;;;;;2.83;2.63;;;14.00;99.50;;;;;;10562794;28;20200;-77
2023/02/18 08:57:52;;;;;;;3.83;2.40;;;14.00;99.60;;;;;;10543882;28;20212;-80
2023/02/18 09:02:54;;;;;;;2.17;2.07;;;14.00;99.70;;;;;;10577712;28;20192;-80
2023/02/18 09:07:57;;;;;;;2.47;2.27;;;14.10;99.10;;;;;;10563035;28;20288;-81
2023/02/18 09:13:00;;;;;;;2.83;2.63;;;14.20;99.50;;;;;;10565696;28;20196;-81
2023/02/18 09:18:02;;;;;;;2.57;2.47;;;14.20;99.70;;;;;;10559729;28;20242;-82
2023/02/18 09:23:04;;;;;;;2.67;2.47;;;14.30;98.70;;;;;;10549496;28;20225;-82
2023/02/18 09:28:08;;;;;;;2.23;2.13;;;14.40;99.20;;;;;;10551312;28;20310;-83
2023/02/18 09:33:10;;;;;;;2.23;2.13;;;14.50;98.70;;;;;;10549533;28;20196;-82
2023/02/18 09:38:15;;;;;;;2.83;2.63;;;14.60;98.40;;;;;;10563437;28;20234;-82
2023/02/18 09:43:28;;;;;;;2.23;2.03;;;14.60;98.30;;;;;;10529655;28;20202;-81
2023/02/18 09:48:33;;;;;;;2.10;2.00;;;14.70;97.90;;;;;;10586187;28;20215;-81
2023/02/18 09:53:35;;;;;;;3.00;2.50;;;14.70;98.00;;;;;;10537174;28;20270;-85
2023/02/18 09:58:39;;;;;;;2.07;1.97;;;14.70;98.00;;;;;;10548048;28;20212;-83
2023/02/18 10:03:42;;;;;;;5.73;3.00;;;14.80;98.00;;;;;;10551574;28;20210;-83
2023/02/18 10:08:46;;;;;;;2.13;2.03;;;14.80;97.70;;;;;;10567566;28;20330;-82
2023/02/18 10:13:51;;;;;;;2.63;2.43;;;14.80;98.40;;;;;;10568435;28;20245;-86
2023/02/18 10:18:56;;;;;;;2.60;2.43;;;14.80;97.50;;;;;;10542711;28;20221;-82
2023/02/18 10:24:01;;;;;;;3.20;2.20;;;14.80;97.60;;;;;;10567256;28;20196;-83
2023/02/18 10:29:15;;;;;;;2.33;2.20;;;14.80;97.70;;;;;;10559801;28;20602;-84
2023/02/18 10:34:28;;;;;;;2.23;1.90;;;14.80;97.90;;;;;;10577834;28;20282;-84
2023/02/18 10:39:50;;;;;;;2.67;2.57;;;14.80;97.80;;;;;;10561890;28;20275;-86
2023/02/18 10:45:08;;;;;;;2.10;2.00;;;14.90;97.50;;;;;;10603073;27;20234;-82
2023/02/18 10:50:28;;;;;;;2.60;2.40;;;14.90;97.10;;;;;;10575784;28;20319;-83
2023/02/18 10:55:38;;;;;;;2.20;2.10;;;14.90;97.60;;;;;;10574687;28;20202;-80
2023/02/18 11:00:42;;;;;;;2.70;2.50;;;15.00;97.30;;;;;;10515858;28;20209;-83
2023/02/18 11:05:45;;;;;;;2.23;2.00;;;15.00;97.00;;;;;;10507245;28;20220;-84
2023/02/18 11:10:49;;;;;;;4.33;3.90;;;15.10;96.90;;;;;;10495072;28;20296;-86
2023/02/18 11:15:59;;;;;;;2.50;2.13;;;15.00;97.20;;;;;;10508319;28;20232;-83
2023/02/18 11:21:04;;;;;;;2.13;2.00;;;15.10;96.70;;;;;;10510790;28;20295;-82
2023/02/18 11:26:11;;;;;;;2.93;2.70;;;15.00;97.20;;;;;;10500487;28;20274;-84
2023/02/18 11:31:21;;;;;;;1.83;1.73;;;15.00;96.70;;;;;;10506955;28;20639;-81
2023/02/18 11:36:27;;;;;;;2.03;1.93;;;15.10;96.30;;;;;;10515179;28;20188;-81
2023/02/18 11:41:33;;;;;;;3.80;2.03;;;15.20;96.30;;;;;;10507533;28;20216;-81
2023/02/18 11:46:37;;;;;;;2.47;2.30;;;15.20;95.90;;;;;;10505033;28;20212;-80
2023/02/18 11:51:40;;;;;;;5.50;3.10;;;15.20;96.20;;;;;;10506356;28;20224;-81
2023/02/18 11:56:55;;;;;;;4.33;4.03;;;15.20;96.00;;;;;;10503697;28;20644;-81
2023/02/18 12:02:03;;;;;;;2.80;2.00;;;15.30;95.40;;;;;;10515195;28;20191;-80
2023/02/18 12:07:17;;;;;;;2.00;1.90;;;15.40;95.10;;;;;;10565365;28;20715;-80
2023/02/18 12:12:26;;;;;;;2.00;1.90;;;15.40;95.60;;;;;;10555406;28;20292;-82
2023/02/18 12:17:48;;;;;;;2.00;1.90;;;15.40;94.70;;;;;;10565919;28;20253;-81
2023/02/18 12:22:57;;;;;;;2.20;2.10;;;15.40;94.50;;;;;;10553428;28;20219;-82
2023/02/18 12:28:14;;;;;;;2.10;2.00;;;15.40;95.00;;;;;;10551194;28;20338;-82
2023/02/18 12:33:29;;;;;;;3.70;1.90;;;15.50;95.00;;;;;;10571072;28;20306;-81
2023/02/18 12:38:53;;;;;;;2.90;2.70;;;15.50;94.60;;;;;;10552798;28;20207;-83
2023/02/18 12:44:04;;;;;;;3.00;2.80;;;15.50;94.70;;;;;;10591597;28;20195;-83
2023/02/18 12:49:27;;;;;;;2.80;2.60;;;15.50;95.00;;;;;;10576414;28;20231;-79
2023/02/18 12:55:01;;;;;;;2.33;2.23;;;15.50;94.70;;;;;;10607017;28;20558;-82
2023/02/18 13:00:31;;;;;;;3.13;2.83;;;15.50;95.10;;;;;;10541606;28;20215;-83
2023/02/18 13:05:43;;;;;;;3.17;2.43;;;15.60;93.40;;;;;;10560911;28;20268;-83
2023/02/18 13:11:04;;;;;;;2.50;2.33;;;15.60;93.70;;;;;;10578969;28;20215;-84
2023/02/18 13:16:11;;;;;;;2.60;2.40;;;15.50;94.00;;;;;;10571325;28;20195;-84
2023/02/18 13:21:16;;;;;;;3.27;3.07;;;15.50;93.40;;;;;;10571936;28;20294;-82
2023/02/18 13:26:19;;;;;;;3.23;3.00;;;15.40;94.00;;;;;;10560059;28;20213;-84
2023/02/18 13:31:33;;;;;;;3.10;2.90;;;15.50;92.70;;;;;;10565866;28;20589;-81
2023/02/18 13:36:47;;;;;;;3.00;2.70;;;15.30;93.60;;;;;;10491061;28;20288;-83
2023/02/18 13:41:52;;;;;;;3.13;2.90;;;15.20;93.40;;;;;;10501353;28;20199;-84
2023/02/18 13:46:56;;;;;;;2.77;2.67;;;15.20;93.80;;;;;;10572077;28;20212;-83
2023/02/18 13:52:01;;;;;;;3.20;3.00;;;15.10;93.30;;;;;;10572301;28;20223;-83
2023/02/18 13:57:06;;;;;;;2.97;2.77;;;15.00;94.00;;;;;;10570333;28;20207;-82
2023/02/18 14:02:34;;;;;;;3.37;3.07;;;15.00;93.40;;;;;;10552514;28;20207;-82
2023/02/18 14:07:49;;;;;;;2.83;2.63;;;14.90;93.30;;;;;;10586142;28;20390;-81
2023/02/18 14:13:19;;;;;;;5.20;3.20;;;15.00;92.70;;;;;;10568068;28;20639;-82
2023/02/18 14:18:32;;;;;;;2.93;2.73;;;14.90;93.30;;;;;;10531522;22;20225;-82
2023/02/18 14:23:43;;;;;;;3.10;2.90;;;14.90;93.70;;;;;;10489795;28;20200;-82
2023/02/18 14:28:53;;;;;;;2.60;2.50;;;14.80;93.70;;;;;;10488157;28;20224;-82
2023/02/18 14:34:11;;;;;;;2.80;2.50;;;14.80;93.50;;;;;;10472582;28;20198;-82
2023/02/18 14:39:35;;;;;;;24.40;14.73;;;14.80;93.90;;;;;;10476625;28;20218;-82
2023/02/18 14:44:50;;;;;;;2.77;2.57;;;14.70;93.90;;;;;;10470360;28;20197;-82
2023/02/18 14:49:57;;;;;;;2.80;2.60;;;14.70;93.80;;;;;;10474523;28;20232;-82
2023/02/18 14:55:02;;;;;;;2.87;2.63;;;14.80;93.80;;;;;;10452539;28;20194;-82
2023/02/18 15:00:05;;;;;;;2.20;2.10;;;14.90;93.70;;;;;;10482034;28;20233;-82
2023/02/18 15:05:18;;;;;;;2.30;2.20;;;14.90;93.60;;;;;;10471974;28;20206;-82
2023/02/18 15:10:20;;;;;;;2.50;2.40;;;15.00;93.80;;;;;;10437172;28;20214;-81
2023/02/18 15:15:24;;;;;;;2.87;2.70;;;15.00;94.00;;;;;;10450134;28;20260;-82
2023/02/18 15:20:35;;;;;;;2.80;2.60;;;15.00;94.00;;;;;;10489964;28;20634;-82
2023/02/18 15:25:37;;;;;;;3.20;2.80;;;15.00;94.40;;;;;;10449981;28;20189;-83
2023/02/18 15:30:39;;;;;;;5.77;2.93;;;15.00;94.00;;;;;;10450881;28;20224;-83
2023/02/18 15:35:42;;;;;;;2.70;2.50;;;15.00;94.60;;;;;;10490653;28;20194;-83
2023/02/18 15:40:49;;;;;;;2.23;2.13;;;14.90;94.70;;;;;;10466348;28;20220;-82
2023/02/18 15:45:54;;;;;;;2.93;2.73;;;14.90;94.40;;;;;;10472629;28;20197;-83
2023/02/18 15:51:03;;;;;;;5.70;2.47;;;14.90;94.40;;;;;;10475539;28;20237;-82
2023/02/18 15:56:10;;;;;;;2.50;2.40;;;14.90;94.70;;;;;;10462393;28;20221;-82
2023/02/18 16:01:27;;;;;;;2.93;2.50;;;14.80;94.50;;;;;;10505000;28;20214;-82
2023/02/18 16:06:35;;;;;;;2.83;2.63;;;14.90;94.70;;;;;;10440676;28;20631;-82
2023/02/18 16:11:40;;;;;;;2.30;2.20;;;14.70;95.00;;;;;;10479438;28;20688;-83
2023/02/18 16:16:42;;;;;;;2.53;2.20;;;14.70;94.90;;;;;;10479930;28;20243;-82
2023/02/18 16:21:46;;;;;;;3.10;2.90;;;14.70;94.70;;;;;;10477387;28;20716;-83
2023/02/18 16:26:51;;;;;;;2.20;2.10;;;14.60;95.00;;;;;;10494312;28;20201;-83
2023/02/18 16:31:53;;;;;;;3.00;2.80;;;14.60;95.00;;;;;;10474827;28;20220;-82
2023/02/18 16:42:16;;;;;;;3.10;2.80;;;14.50;95.30;;;;;;10466747;28;20196;-83
2023/02/18 16:47:19;;;;;;;3.00;2.80;;;14.40;95.40;;;;;;10483933;28;20218;-83
2023/02/18 16:52:23;;;;;;;3.00;2.80;;;14.40;95.30;;;;;;10454793;28;20248;-82
2023/02/18 16:57:25;;;;;;;12.50;11.30;;;14.40;95.40;;;;;;10449154;28;20197;-83
2023/02/18 17:02:28;;;;;;;2.67;2.57;;;14.30;95.50;;;;;;10501140;28;20546;-83
2023/02/18 17:07:32;;;;;;;2.50;2.40;;;14.30;95.70;;;;;;10449293;28;20217;-82
2023/02/18 17:12:36;;;;;;;3.63;2.87;;;14.30;95.80;;;;;;10449962;28;20189;-83
2023/02/18 17:17:38;;;;;;;3.40;3.17;;;14.20;95.90;;;;;;10463956;28;20316;-82
2023/02/18 17:22:42;;;;;;;3.40;3.20;;;14.20;95.90;;;;;;10486528;28;20209;-82
2023/02/18 17:27:44;;;;;;;6.23;3.87;;;14.20;96.10;;;;;;10477094;28;20291;-82
2023/02/18 17:32:47;;;;;;;3.30;3.00;;;14.30;96.00;;;;;;10449044;28;20220;-82
2023/02/18 17:37:51;;;;;;;3.50;3.20;;;14.20;96.10;;;;;;10452496;28;20567;-82
2023/02/18 17:42:56;;;;;;;3.10;2.90;;;14.20;96.50;;;;;;10456549;28;20197;-82
2023/02/18 17:48:00;;;;;;;3.37;3.17;;;14.20;96.60;;;;;;10421137;28;20234;-82
2023/02/18 17:53:04;;;;;;;3.50;3.23;;;14.10;97.00;;;;;;10465628;28;20206;-82
2023/02/18 17:58:09;;;;;;;3.30;3.13;;;14.10;97.70;;;;;;10448539;28;20226;-82
2023/02/18 18:03:13;;;;;;;3.47;3.17;;;14.00;97.80;;;;;;10434848;28;20564;-82
2023/02/18 18:08:16;;;;;;;3.80;3.33;;;14.00;97.90;;;;;;10460086;28;20277;-82
2023/02/18 18:13:21;;;;;;;3.73;3.40;;;13.90;98.20;;;;;;10491922;28;20292;-82
2023/02/18 18:18:24;;;;;;;5.03;3.77;;;13.90;98.40;;;;;;10468518;28;20673;-82
2023/02/18 18:23:28;;;;;;;3.50;3.30;;;13.90;98.30;;;;;;10392552;28;20203;-82
2023/02/18 18:28:30;;;;;;;4.53;4.23;;;13.90;98.30;;;;;;10391644;28;20317;-82
2023/02/18 18:33:34;;;;;;;3.83;3.17;;;13.90;98.40;;;;;;10396157;28;20195;-82
2023/02/18 18:38:38;;;;;;;3.43;3.23;;;13.90;98.10;;;;;;10418798;28;20211;-82
2023/02/18 18:43:41;;;;;;;3.53;3.27;;;13.90;98.00;;;;;;10414277;28;20222;-82
2023/02/18 18:48:43;;;;;;;4.30;3.90;;;13.90;98.20;;;;;;10421916;28;20228;-82
2023/02/18 18:53:51;;;;;;;3.63;3.33;;;13.90;98.40;;;;;;10396936;28;20221;-82
2023/02/18 18:58:54;;;;;;;3.70;3.40;;;13.90;98.40;;;;;;10396216;28;20207;-82
2023/02/18 19:03:57;;;;;;;3.60;3.40;;;13.90;98.40;;;;;;10406766;28;20220;-82
2023/02/18 19:09:00;;;;;;;4.17;3.87;;;13.80;98.70;;;;;;10431796;28;20282;-82
2023/02/18 19:14:02;;;;;;;3.40;3.20;;;13.80;98.40;;;;;;10420746;28;20207;-82
2023/02/18 19:19:06;;;;;;;6.17;3.70;;;13.80;98.60;;;;;;10414181;28;20333;-82
2023/02/18 19:24:10;;;;;;;3.87;3.67;;;13.80;98.70;;;;;;10416934;28;20201;-82
2023/02/18 19:29:12;;;;;;;4.57;4.17;;;13.80;98.80;;;;;;10455223;28;20277;-82
2023/02/18 19:34:15;;;;;;;4.23;3.93;;;13.70;99.00;;;;;;10444566;28;20553;-82
2023/02/18 19:39:18;;;;;;;22.90;16.93;;;13.70;99.00;;;;;;10424040;28;20286;-82
2023/02/18 19:44:23;;;;;;;4.27;3.97;;;13.70;98.90;;;;;;10446087;28;20226;-82
2023/02/18 19:49:27;;;;;;;3.70;3.50;;;13.70;98.50;;;;;;10420615;28;20218;-82
2023/02/18 19:54:30;;;;;;;3.03;2.73;;;13.70;98.90;;;;;;10431662;28;20221;-82
2023/02/18 19:59:35;;;;;;;4.10;3.80;;;13.70;99.20;;;;;;10455451;28;20232;-82
2023/02/18 20:04:37;;;;;;;4.30;3.90;;;13.70;99.10;;;;;;10446488;28;20294;-82
2023/02/18 20:09:40;;;;;;;4.00;3.70;;;13.60;99.50;;;;;;10415873;28;20230;-82
2023/02/18 20:14:43;;;;;;;4.63;4.33;;;13.60;99.80;;;;;;10405069;28;20198;-82
2023/02/18 20:19:47;;;;;;;4.20;3.90;;;13.60;99.90;;;;;;10415247;28;20288;-83
2023/02/18 20:24:52;;;;;;;4.20;3.70;;;13.60;99.90;;;;;;10401360;28;20290;-82
2023/02/18 20:29:55;;;;;;;4.03;3.83;;;13.50;99.90;;;;;;10394024;28;20258;-82
2023/02/18 20:34:57;;;;;;;3.30;3.10;;;13.50;99.90;;;;;;10416981;28;20209;-82
2023/02/18 20:40:00;;;;;;;4.10;3.80;;;13.40;99.90;;;;;;10400184;28;20245;-82
2023/02/18 20:45:03;;;;;;;6.20;5.60;;;13.40;99.90;;;;;;10391953;28;20281;-82
2023/02/18 20:50:06;;;;;;;5.13;4.57;;;13.40;99.90;;;;;;10373366;28;20235;-82
2023/02/18 20:55:09;;;;;;;4.17;3.87;;;13.40;99.90;;;;;;10373178;28;20200;-82
2023/02/18 21:00:13;;;;;;;4.93;4.43;;;13.30;99.90;;;;;;10356092;28;20222;-82
2023/02/18 21:05:15;;;;;;;4.50;4.07;;;13.30;99.90;;;;;;10377662;28;20589;-82
2023/02/18 21:10:20;;;;;;;4.40;4.03;;;13.30;99.90;;;;;;10370837;28;20587;-82
2023/02/18 21:15:23;;;;;;;7.87;5.70;;;13.30;99.90;;;;;;10381544;28;20205;-82
2023/02/18 21:20:25;;;;;;;4.40;4.10;;;13.20;99.90;;;;;;10383300;28;20340;-82
2023/02/18 21:25:28;;;;;;;3.87;3.67;;;13.20;99.90;;;;;;10383446;28;20207;-82
2023/02/18 21:30:35;;;;;;;4.83;4.40;;;13.20;99.90;;;;;;10385924;28;20344;-82
2023/02/18 21:35:38;;;;;;;4.37;4.07;;;13.20;99.90;;;;;;10389380;28;20198;-82
2023/02/18 21:40:42;;;;;;;12.00;4.70;;;13.20;99.90;;;;;;10402583;28;20336;-82
2023/02/18 21:45:44;;;;;;;3.77;3.47;;;13.10;99.90;;;;;;10395056;28;20191;-82
2023/02/18 21:50:46;;;;;;;4.57;4.17;;;13.10;99.90;;;;;;10379438;28;20220;-82
2023/02/18 21:55:50;;;;;;;4.17;3.87;;;13.10;99.90;;;;;;10366447;28;20196;-82
2023/02/18 22:00:58;;;;;;;3.80;3.60;;;13.10;99.90;;;;;;10386928;28;20293;-82
2023/02/18 22:06:00;;;;;;;4.57;4.20;;;13.10;99.90;;;;;;10405543;28;20582;-82
2023/02/18 22:11:05;;;;;;;4.17;3.97;;;13.10;99.90;;;;;;10378468;28;20243;-82
2023/02/18 22:16:08;;;;;;;4.17;3.97;;;13.10;99.90;;;;;;10377393;28;20571;-82
2023/02/18 22:21:10;;;;;;;3.73;3.53;;;13.10;99.90;;;;;;10453038;28;20217;-82
2023/02/18 22:26:13;;;;;;;4.43;4.13;;;13.00;99.90;;;;;;10436576;28;20633;-82
2023/02/18 22:31:15;;;;;;;4.10;3.80;;;13.00;99.90;;;;;;10476263;28;20628;-82
2023/02/18 22:36:19;;;;;;;4.53;4.27;;;13.00;99.90;;;;;;10474555;28;20690;-82
2023/02/18 22:41:25;;;;;;;4.67;4.37;;;13.00;99.90;;;;;;10449618;28;20209;-82
2023/02/18 22:46:28;;;;;;;4.40;4.10;;;13.00;99.90;;;;;;10449626;28;20276;-82
2023/02/18 22:51:33;;;;;;;6.50;5.47;;;12.90;99.90;;;;;;10477743;28;20213;-82
2023/02/18 22:56:36;;;;;;;4.60;4.40;;;12.90;99.90;;;;;;10398857;28;20204;-82
2023/02/18 23:01:40;;;;;;;4.43;4.23;;;12.90;99.90;;;;;;10491350;28;20206;-82
2023/02/18 23:06:44;;;;;;;4.93;4.63;;;12.80;99.90;;;;;;10480712;28;20650;-82
2023/02/18 23:11:50;;;;;;;5.40;5.03;;;12.80;99.90;;;;;;10459260;28;20697;-82
2023/02/18 23:17:13;;;;;;;4.33;4.13;;;12.80;99.90;;;;;;10457885;28;20610;-82
2023/02/18 23:22:17;;;;;;;5.07;4.77;;;12.80;99.90;;;;;;10453075;28;20279;-82
2023/02/18 23:27:22;;;;;;;5.33;4.97;;;12.70;99.90;;;;;;10448997;28;20217;-82
2023/02/18 23:32:26;;;;;;;4.87;4.60;;;12.70;99.90;;;;;;10413697;28;20206;-83
2023/02/18 23:42:46;;;;;;;6.20;5.80;;;12.60;99.90;;;;;;10432019;28;20232;-82
2023/02/18 23:47:48;;;;;;;7.90;7.10;;;12.60;99.90;;;;;;10445518;28;20221;-82
2023/02/18 23:52:50;;;;;;;5.40;5.07;;;12.60;99.90;;;;;;10454943;28;20245;-82
2023/02/18 23:57:53;;;;;;;4.90;4.60;;;12.60;99.90;;;;;;10406797;28;20702;-81
